TOM1FK LEIB-EGGD
Flight info
| Callsign | TOM1FK |
|---|---|
| Flight time | N/A |
| Altitude | 34000 |
| Route | EPAMA DCT MARTA DCT EBROX DCT UMURE N863 GIROM DCT AGN DCT SECHE DCT UVELI DCT CNA DCT MANAK DCT MUREL/N0423F300 DCT NOZHU/N0418F290 DCT SHIRI DCT TOJAQ |
| Aircraft | B38M/M-SDE1FGHILORVWXY/HB1 |
Departure
| Time | N/A |
|---|---|
| Airport | Ibiza Airport (LEIB) |
Arrival
| Time | 2026-05-04 21:07 |
|---|---|
| Airport | Bristol Airport (EGGD) |
| Time | Latitude | Longitude | Altitude | Speed | Heading |
|---|---|---|---|---|---|
| 2026-05-04 20:15 | 46.33958 | -0.91116 | 33963 ft | 485 kts | 327° |
| 2026-05-04 20:15 | 46.39817 | -0.95973 | 33964 ft | 486 kts | 328° |
| 2026-05-04 20:16 | 46.45657 | -1.00825 | 33973 ft | 486 kts | 328° |
| 2026-05-04 20:16 | 46.51508 | -1.05700 | 33970 ft | 486 kts | 328° |
| 2026-05-04 20:17 | 46.57385 | -1.10607 | 33968 ft | 486 kts | 328° |
| 2026-05-04 20:17 | 46.63286 | -1.15548 | 33972 ft | 489 kts | 328° |
| 2026-05-04 20:18 | 46.69147 | -1.20468 | 33967 ft | 489 kts | 328° |
| 2026-05-04 20:18 | 46.75017 | -1.25407 | 33980 ft | 485 kts | 328° |
| 2026-05-04 20:19 | 46.80872 | -1.30346 | 33967 ft | 484 kts | 328° |
| 2026-05-04 20:19 | 46.86680 | -1.35259 | 33966 ft | 484 kts | 327° |
| 2026-05-04 20:20 | 46.92503 | -1.40196 | 33965 ft | 484 kts | 327° |
| 2026-05-04 20:20 | 46.98307 | -1.45129 | 33962 ft | 485 kts | 327° |
| 2026-05-04 20:21 | 47.04146 | -1.50106 | 33966 ft | 485 kts | 327° |
| 2026-05-04 20:21 | 47.12908 | -1.57597 | 33965 ft | 485 kts | 327° |
| 2026-05-04 20:22 | 47.18694 | -1.62559 | 33956 ft | 486 kts | 327° |
| 2026-05-04 20:22 | 47.24553 | -1.67597 | 33985 ft | 484 kts | 327° |
| 2026-05-04 20:23 | 47.30348 | -1.72594 | 33963 ft | 482 kts | 327° |
| 2026-05-04 20:23 | 47.36123 | -1.77585 | 33962 ft | 482 kts | 327° |
| 2026-05-04 20:24 | 47.41876 | -1.82570 | 33961 ft | 483 kts | 328° |
| 2026-05-04 20:24 | 47.47692 | -1.87623 | 33965 ft | 483 kts | 327° |
| 2026-05-04 20:25 | 47.53490 | -1.92673 | 33964 ft | 483 kts | 327° |
| 2026-05-04 20:25 | 47.59238 | -1.97692 | 33959 ft | 483 kts | 328° |
| 2026-05-04 20:26 | 47.65033 | -2.02767 | 33969 ft | 484 kts | 328° |
| 2026-05-04 20:26 | 47.70807 | -2.07836 | 33972 ft | 484 kts | 327° |
| 2026-05-04 20:27 | 47.76605 | -2.12938 | 33982 ft | 482 kts | 328° |
| 2026-05-04 20:27 | 47.82380 | -2.18034 | 33969 ft | 483 kts | 328° |
| 2026-05-04 20:28 | 47.88137 | -2.23128 | 33978 ft | 484 kts | 328° |
| 2026-05-04 20:28 | 47.93925 | -2.28262 | 33978 ft | 484 kts | 328° |
| 2026-05-04 20:29 | 47.99681 | -2.33381 | 33979 ft | 484 kts | 328° |
| 2026-05-04 20:29 | 48.05462 | -2.38537 | 33985 ft | 484 kts | 328° |
| 2026-05-04 20:30 | 48.11245 | -2.43707 | 33989 ft | 484 kts | 328° |
| 2026-05-04 20:30 | 48.17035 | -2.48898 | 33991 ft | 484 kts | 328° |
| 2026-05-04 20:31 | 48.22769 | -2.54052 | 33988 ft | 484 kts | 328° |
| 2026-05-04 20:31 | 48.28547 | -2.59259 | 34006 ft | 482 kts | 328° |
| 2026-05-04 20:32 | 48.34289 | -2.64448 | 33993 ft | 480 kts | 327° |
| 2026-05-04 20:32 | 48.39978 | -2.69603 | 33997 ft | 480 kts | 327° |
| 2026-05-04 20:33 | 48.45684 | -2.74786 | 34002 ft | 477 kts | 328° |
| 2026-05-04 20:33 | 48.51346 | -2.79943 | 34006 ft | 477 kts | 327° |
| 2026-05-04 20:34 | 48.57040 | -2.85144 | 33992 ft | 477 kts | 327° |
| 2026-05-04 20:34 | 48.62719 | -2.90344 | 33989 ft | 477 kts | 328° |
| 2026-05-04 20:35 | 48.68388 | -2.95549 | 33996 ft | 476 kts | 327° |
| 2026-05-04 20:35 | 48.74018 | -3.00732 | 34002 ft | 476 kts | 327° |
| 2026-05-04 20:36 | 48.79695 | -3.05972 | 34029 ft | 476 kts | 328° |
| 2026-05-04 20:36 | 48.85287 | -3.11147 | 34019 ft | 472 kts | 328° |
| 2026-05-04 20:37 | 48.90884 | -3.16342 | 34020 ft | 472 kts | 328° |
| 2026-05-04 20:37 | 48.96502 | -3.21568 | 34019 ft | 472 kts | 328° |
| 2026-05-04 20:38 | 49.02116 | -3.26806 | 34018 ft | 472 kts | 328° |
| 2026-05-04 20:38 | 49.07673 | -3.32004 | 34016 ft | 471 kts | 328° |
| 2026-05-04 20:39 | 49.13271 | -3.37255 | 34018 ft | 471 kts | 328° |
| 2026-05-04 20:39 | 49.18861 | -3.42512 | 34018 ft | 471 kts | 328° |
| 2026-05-04 20:40 | 49.23507 | -3.46891 | 34020 ft | 471 kts | 328° |
| 2026-05-04 20:40 | 49.29074 | -3.52152 | 34018 ft | 470 kts | 328° |
| 2026-05-04 20:41 | 49.34874 | -3.56591 | 34049 ft | 469 kts | 341° |
| 2026-05-04 20:41 | 49.40988 | -3.60090 | 34022 ft | 467 kts | 340° |
| 2026-05-04 20:42 | 49.47091 | -3.63584 | 34019 ft | 467 kts | 340° |
| 2026-05-04 20:42 | 49.53133 | -3.67047 | 34022 ft | 466 kts | 340° |
| 2026-05-04 20:43 | 49.59212 | -3.70540 | 34023 ft | 466 kts | 340° |
| 2026-05-04 20:43 | 49.65268 | -3.74029 | 34023 ft | 466 kts | 340° |
| 2026-05-04 20:44 | 49.71555 | -3.75980 | 34020 ft | 460 kts | 4° |
| 2026-05-04 20:44 | 49.77971 | -3.75402 | 34017 ft | 462 kts | 5° |
| 2026-05-04 20:45 | 49.84368 | -3.74698 | 34018 ft | 462 kts | 5° |
| 2026-05-04 20:45 | 49.90789 | -3.73943 | 34018 ft | 462 kts | 5° |
| 2026-05-04 20:46 | 49.97207 | -3.73181 | 34017 ft | 461 kts | 5° |
| 2026-05-04 20:46 | 50.03568 | -3.72423 | 32897 ft | 467 kts | 6° |
| 2026-05-04 20:47 | 50.06852 | -3.72031 | 31503 ft | 480 kts | 6° |
| 2026-05-04 20:47 | 50.10217 | -3.71630 | 30595 ft | 483 kts | 6° |
| 2026-05-04 20:47 | 50.13538 | -3.71234 | 30337 ft | 475 kts | 6° |
| 2026-05-04 20:47 | 50.16867 | -3.70836 | 28679 ft | 488 kts | 6° |
| 2026-05-04 20:48 | 50.20293 | -3.70425 | 27460 ft | 493 kts | 6° |
| 2026-05-04 20:48 | 50.23702 | -3.70016 | 26590 ft | 490 kts | 6° |
| 2026-05-04 20:48 | 50.27052 | -3.69613 | 25477 ft | 492 kts | 6° |
| 2026-05-04 20:48 | 50.30442 | -3.69205 | 24403 ft | 484 kts | 6° |
| 2026-05-04 20:49 | 50.33794 | -3.68801 | 23245 ft | 477 kts | 6° |
| 2026-05-04 20:49 | 50.37077 | -3.68404 | 21907 ft | 468 kts | 6° |
| 2026-05-04 20:49 | 50.40267 | -3.68008 | 21255 ft | 445 kts | 7° |
| 2026-05-04 20:49 | 50.43283 | -3.67489 | 19667 ft | 445 kts | 8° |
| 2026-05-04 20:50 | 50.46371 | -3.66940 | 18573 ft | 439 kts | 8° |
| 2026-05-04 20:50 | 50.49339 | -3.66386 | 17433 ft | 426 kts | 9° |
| 2026-05-04 20:50 | 50.52277 | -3.65818 | 16201 ft | 423 kts | 8° |
| 2026-05-04 20:50 | 50.55116 | -3.65275 | 15974 ft | 395 kts | 8° |
| 2026-05-04 20:51 | 50.57766 | -3.64769 | 15603 ft | 383 kts | 8° |
| 2026-05-04 20:51 | 50.60427 | -3.64262 | 14333 ft | 388 kts | 7° |
| 2026-05-04 20:51 | 50.63131 | -3.63746 | 13601 ft | 381 kts | 7° |
| 2026-05-04 20:51 | 50.65670 | -3.63260 | 13539 ft | 353 kts | 7° |
| 2026-05-04 20:52 | 50.68031 | -3.62809 | 13515 ft | 339 kts | 7° |
| 2026-05-04 20:52 | 50.70338 | -3.62367 | 13469 ft | 325 kts | 7° |
| 2026-05-04 20:52 | 50.72541 | -3.61944 | 13414 ft | 313 kts | 7° |
| 2026-05-04 20:52 | 50.74667 | -3.61536 | 13361 ft | 301 kts | 7° |
| 2026-05-04 20:53 | 50.76676 | -3.61151 | 13308 ft | 291 kts | 7° |
| 2026-05-04 20:53 | 50.78717 | -3.60759 | 13261 ft | 301 kts | 7° |
| 2026-05-04 20:53 | 50.80821 | -3.60354 | 13215 ft | 308 kts | 7° |
| 2026-05-04 20:53 | 50.82961 | -3.59942 | 13029 ft | 310 kts | 7° |
| 2026-05-04 20:54 | 50.85109 | -3.59528 | 12735 ft | 310 kts | 7° |
| 2026-05-04 20:54 | 50.87228 | -3.59120 | 12403 ft | 310 kts | 7° |
| 2026-05-04 20:54 | 50.89368 | -3.58707 | 12078 ft | 309 kts | 7° |
| 2026-05-04 20:54 | 50.91495 | -3.58296 | 11760 ft | 306 kts | 7° |
| 2026-05-04 20:55 | 50.93535 | -3.57457 | 11396 ft | 304 kts | 28° |
| 2026-05-04 20:55 | 50.95186 | -3.55417 | 11072 ft | 299 kts | 47° |
| 2026-05-04 20:55 | 50.96632 | -3.53070 | 10797 ft | 296 kts | 46° |
| 2026-05-04 20:55 | 50.98066 | -3.50737 | 10487 ft | 293 kts | 46° |
| 2026-05-04 20:56 | 50.99467 | -3.48438 | 10264 ft | 289 kts | 47° |
| 2026-05-04 20:56 | 51.00842 | -3.46169 | 10133 ft | 280 kts | 47° |
| 2026-05-04 20:56 | 51.02180 | -3.43954 | 9928 ft | 275 kts | 47° |
| 2026-05-04 20:56 | 51.03479 | -3.41797 | 9647 ft | 272 kts | 47° |
| 2026-05-04 20:57 | 51.04792 | -3.39657 | 9372 ft | 269 kts | 42° |
| 2026-05-04 20:57 | 51.06421 | -3.38240 | 9039 ft | 269 kts | 15° |
| 2026-05-04 20:57 | 51.08256 | -3.37780 | 8795 ft | 265 kts | 8° |
| 2026-05-04 20:57 | 51.10077 | -3.37409 | 8514 ft | 263 kts | 7° |
| 2026-05-04 20:58 | 51.11890 | -3.37059 | 8231 ft | 261 kts | 8° |
| 2026-05-04 20:58 | 51.13693 | -3.36722 | 7954 ft | 263 kts | 7° |
| 2026-05-04 20:58 | 51.15530 | -3.36390 | 7674 ft | 267 kts | 7° |
| 2026-05-04 20:58 | 51.17333 | -3.35688 | 7348 ft | 268 kts | 28° |
| 2026-05-04 20:59 | 51.18750 | -3.33820 | 7050 ft | 264 kts | 52° |
| 2026-05-04 20:59 | 51.19883 | -3.31534 | 6794 ft | 261 kts | 52° |
| 2026-05-04 20:59 | 51.20976 | -3.29298 | 6507 ft | 259 kts | 52° |
| 2026-05-04 20:59 | 51.22077 | -3.27018 | 6210 ft | 258 kts | 52° |
| 2026-05-04 21:00 | 51.23163 | -3.24750 | 5919 ft | 256 kts | 52° |
| 2026-05-04 21:00 | 51.24237 | -3.22494 | 5634 ft | 254 kts | 52° |
| 2026-05-04 21:00 | 51.25300 | -3.20250 | 5357 ft | 252 kts | 52° |
| 2026-05-04 21:00 | 51.26350 | -3.18028 | 5121 ft | 249 kts | 53° |
| 2026-05-04 21:01 | 51.27396 | -3.15812 | 5038 ft | 251 kts | 52° |
| 2026-05-04 21:01 | 51.28452 | -3.13572 | 4957 ft | 252 kts | 53° |
| 2026-05-04 21:01 | 51.29483 | -3.11383 | 4874 ft | 245 kts | 52° |
| 2026-05-04 21:01 | 51.30491 | -3.09242 | 4767 ft | 236 kts | 52° |
| 2026-05-04 21:02 | 51.31459 | -3.07182 | 4667 ft | 227 kts | 52° |
| 2026-05-04 21:02 | 51.32391 | -3.05195 | 4558 ft | 218 kts | 52° |
| 2026-05-04 21:02 | 51.33286 | -3.03288 | 4418 ft | 210 kts | 52° |
| 2026-05-04 21:02 | 51.34139 | -3.01470 | 4263 ft | 204 kts | 52° |
| 2026-05-04 21:03 | 51.34988 | -2.99659 | 4005 ft | 203 kts | 52° |
| 2026-05-04 21:03 | 51.35832 | -2.97856 | 3712 ft | 203 kts | 53° |
| 2026-05-04 21:03 | 51.36682 | -2.96041 | 3442 ft | 204 kts | 53° |
| 2026-05-04 21:03 | 51.37340 | -2.94035 | 3153 ft | 204 kts | 75° |
| 2026-05-04 21:04 | 51.37530 | -2.91839 | 2919 ft | 196 kts | 85° |
| 2026-05-04 21:04 | 51.37599 | -2.89704 | 2692 ft | 187 kts | 86° |
| 2026-05-04 21:04 | 51.37669 | -2.87692 | 2465 ft | 177 kts | 85° |
| 2026-05-04 21:04 | 51.37739 | -2.85787 | 2235 ft | 164 kts | 84° |
| 2026-05-04 21:05 | 51.37807 | -2.84001 | 2021 ft | 158 kts | 84° |
| 2026-05-04 21:05 | 51.37870 | -2.82341 | 1827 ft | 142 kts | 85° |
| 2026-05-04 21:05 | 51.37929 | -2.80800 | 1605 ft | 137 kts | 85° |
| 2026-05-04 21:05 | 51.37986 | -2.79276 | 1438 ft | 138 kts | 84° |
| 2026-05-04 21:06 | 51.38046 | -2.77732 | 1231 ft | 139 kts | 85° |
| 2026-05-04 21:06 | 51.38098 | -2.76195 | 1013 ft | 139 kts | 84° |
| 2026-05-04 21:06 | 51.38159 | -2.74616 | 837 ft | 146 kts | 84° |
| 2026-05-04 21:06 | 51.38225 | -2.73015 | 643 ft | 139 kts | 86° |
| 2026-05-04 21:07 | 51.38265 | -2.71967 | 621 ft | 55 kts | 86° |
| 2026-05-04 21:07 | 51.38282 | -2.71534 | 613 ft | 18 kts | 86° |
| 2026-05-04 21:07 | 51.38326 | -2.71462 | 610 ft | 10 kts | 343° |
| 2026-05-04 21:07 | 51.38389 | -2.71524 | 612 ft | 11 kts | 327° |
| 2026-05-04 21:08 | 51.38437 | -2.71511 | 622 ft | 6 kts | 51° |
| 2026-05-04 21:08 | 51.38444 | -2.71475 | 616 ft | 1 kts | 83° |
| 2026-05-04 21:08 | 51.38444 | -2.71474 | 616 ft | 0 kts | 83° |
| 2026-05-04 21:08 | 51.38446 | -2.71442 | 616 ft | 11 kts | 87° |
| 2026-05-04 21:09 | 51.38452 | -2.71268 | 618 ft | 19 kts | 86° |
| 2026-05-04 21:09 | 51.38460 | -2.71059 | 617 ft | 9 kts | 86° |
| 2026-05-04 21:09 | 51.38468 | -2.71011 | 617 ft | 1 kts | 34° |
| 2026-05-04 21:09 | 51.38485 | -2.71010 | 625 ft | 8 kts | 358° |
| 2026-05-04 21:10 | 51.38520 | -2.71015 | 621 ft | 0 kts | 355° |
| 2026-05-04 21:10 | 51.38521 | -2.71015 | 620 ft | 0 kts | 356° |